Time;durP1;ratioP1;P1;durP2;ratioP2;P2;SDS_P1;SDS_P2;PMS_P1;PMS_P2;Temp;Humidity;BMP_temperature;BMP_pressure;BME280_temperature;BME280_humidity;BME280_pressure;Samples;Min_cycle;Max_cycle;Signal;HPM_P1;HPM_P2
2022/06/19 00:02:18;;;;;;;;;;;19.40;99.90;;;19.72;56.26;100977.41;5114370;28;20059;-60
2022/06/19 00:04:52;;;;;;;16.08;4.82;;;19.40;99.90;;;19.73;56.13;101003.28;5115406;28;19959;-61
2022/06/19 00:07:21;;;;;;;13.73;4.60;;;19.40;99.90;;;19.89;56.24;101047.41;5115269;28;20067;-61
2022/06/19 00:09:50;;;;;;;11.50;4.07;;;19.50;99.90;;;19.89;56.09;101097.53;5115989;28;20044;-61
2022/06/19 00:12:19;;;;;;;15.75;4.70;;;19.50;99.90;;;19.97;56.06;101122.28;5115444;28;20039;-61
2022/06/19 00:14:49;;;;;;;10.95;4.45;;;19.60;99.90;;;19.98;55.39;101141.03;5115328;28;20093;-61
2022/06/19 00:17:17;;;;;;;14.27;4.47;;;19.60;99.90;;;19.86;55.59;101173.69;5114806;28;20473;-61
2022/06/19 00:19:46;;;;;;;16.30;4.53;;;19.50;99.90;;;19.69;56.13;101176.16;5096667;28;20511;-61
2022/06/19 00:22:14;;;;;;;11.77;4.15;;;19.40;99.90;;;19.78;57.20;101178.50;5114799;28;20122;-61
2022/06/19 00:24:43;;;;;;;12.18;4.30;;;19.40;99.90;;;19.75;56.75;101160.69;5114764;28;20042;-60
2022/06/19 00:27:11;;;;;;;11.77;4.43;;;19.40;99.90;;;19.65;56.88;101143.19;5115188;28;20048;-59
2022/06/19 00:29:40;;;;;;;13.55;4.40;;;19.30;99.90;;;19.70;57.25;101117.03;5096527;28;20130;-59
2022/06/19 00:32:10;;;;;;;11.07;4.10;;;19.40;99.90;;;19.71;56.81;101097.31;5114373;28;20462;-59
2022/06/19 00:34:39;;;;;;;17.30;4.20;;;19.40;99.90;;;19.75;57.04;101103.44;5115266;28;20130;-59
2022/06/19 00:37:07;;;;;;;8.05;3.80;;;19.40;99.90;;;19.71;57.15;101128.66;5095999;28;20074;-59
2022/06/19 00:39:39;;;;;;;15.43;4.05;;;19.40;99.90;;;19.62;56.77;101129.00;5114521;28;20109;-60
2022/06/19 00:42:11;;;;;;;12.27;3.80;;;19.30;99.90;;;19.64;57.21;101136.06;5114301;28;20086;-59
2022/06/19 00:44:40;;;;;;;12.35;3.83;;;19.30;99.90;;;19.66;56.88;101141.38;5114395;28;20070;-59
2022/06/19 00:47:17;;;;;;;14.35;4.20;;;19.30;99.90;;;19.47;57.20;101113.47;5114609;28;20036;-59
2022/06/19 00:49:51;;;;;;;14.02;4.32;;;19.30;99.90;;;19.60;57.18;101152.34;5114119;28;20100;-59
2022/06/19 00:52:22;;;;;;;14.35;4.15;;;19.30;99.90;;;19.48;57.49;101144.72;5114231;28;20047;-59
2022/06/19 00:55:00;;;;;;;15.23;4.10;;;19.20;99.90;;;19.56;57.17;101142.66;5113920;28;20036;-59
2022/06/19 00:57:33;;;;;;;11.20;3.85;;;19.20;99.90;;;19.55;56.04;101128.34;5113747;28;20040;-59
2022/06/19 01:00:08;;;;;;;14.18;3.85;;;19.20;99.90;;;19.60;55.62;101136.25;5114041;28;20154;-59
2022/06/19 01:02:42;;;;;;;11.48;3.33;;;19.20;99.90;;;19.50;54.32;101124.09;5114026;28;20126;-59
2022/06/19 01:05:14;;;;;;;12.07;3.80;;;19.20;99.90;;;19.44;53.41;101138.59;5113987;28;20043;-60
2022/06/19 01:07:45;;;;;;;12.45;3.58;;;19.10;99.90;;;19.47;52.75;101138.47;5114359;28;20047;-59
2022/06/19 01:10:15;;;;;;;11.43;3.65;;;19.20;99.90;;;19.45;52.40;101131.44;5113688;28;20125;-59
2022/06/19 01:12:45;;;;;;;11.50;3.55;;;19.10;99.90;;;19.47;52.45;101130.44;5113038;28;20540;-59
2022/06/19 01:15:18;;;;;;;12.38;4.07;;;19.20;99.90;;;19.55;52.19;101133.72;5113535;28;20497;-59
2022/06/19 01:17:54;;;;;;;11.98;3.67;;;19.20;99.90;;;19.46;52.38;101109.03;5113462;28;20086;-59
2022/06/19 01:20:24;;;;;;;8.30;3.42;;;19.30;99.90;;;19.51;52.72;101115.97;5113421;28;20135;-59
2022/06/19 01:23:01;;;;;;;12.65;3.67;;;19.20;99.90;;;18.97;53.38;100999.94;5113594;28;20123;-59
2022/06/19 01:25:33;;;;;;;12.57;4.40;;;19.20;99.90;;;19.61;54.23;101100.41;5113517;28;20464;-59
2022/06/19 01:30:53;;;;;;;20.38;4.03;;;19.30;99.90;;;19.68;55.88;101093.88;5113265;28;20067;-59
2022/06/19 01:33:36;;;;;;;13.23;3.95;;;19.30;99.90;;;19.69;56.10;101103.66;5113126;28;20447;-59
2022/06/19 01:36:07;;;;;;;13.55;4.10;;;19.30;99.90;;;19.67;57.21;101144.00;5113227;28;20114;-59
2022/06/19 01:38:37;;;;;;;14.70;4.18;;;19.30;99.90;;;19.63;57.98;101177.25;5113080;28;20043;-59
2022/06/19 01:41:14;;;;;;;15.97;4.27;;;19.30;99.90;;;19.63;58.20;101188.00;5113397;28;20042;-59
2022/06/19 01:43:43;;;;;;;17.58;4.53;;;19.30;99.90;;;19.53;58.15;101172.28;5113657;28;20346;-59
2022/06/19 01:46:12;;;;;;;14.68;4.32;;;19.30;99.90;;;19.60;57.24;101142.50;5113056;28;20059;-60
2022/06/19 01:48:40;;;;;;;21.98;4.53;;;19.30;99.90;;;19.69;55.89;101109.03;5113210;28;20532;-59
2022/06/19 01:51:10;;;;;;;16.25;4.47;;;19.30;99.90;;;19.67;55.05;101079.56;5113073;28;20046;-60
2022/06/19 01:53:42;;;;;;;18.42;4.55;;;19.40;99.90;;;19.50;54.04;101087.41;5113317;28;20108;-59
2022/06/19 01:56:14;;;;;;;16.42;4.38;;;19.20;99.90;;;19.46;54.27;101123.31;5112996;28;20072;-59
2022/06/19 01:58:49;;;;;;;16.23;4.18;;;19.20;99.90;;;19.48;53.83;101132.19;5112865;28;20043;-59
2022/06/19 02:01:17;;;;;;;16.63;4.30;;;19.20;99.90;;;19.52;53.26;101116.84;5112932;28;20112;-59
2022/06/19 02:03:50;;;;;;;15.23;4.72;;;19.10;99.90;;;19.53;54.32;101121.31;5112878;28;20036;-59
2022/06/19 02:06:21;;;;;;;17.27;4.43;;;19.20;99.90;;;19.40;55.49;101214.78;5113538;28;20044;-59
2022/06/19 02:08:51;;;;;;;18.70;5.13;;;19.10;99.90;;;18.70;57.29;101341.31;5112844;28;20051;-59
2022/06/19 02:11:22;;;;;;;18.25;4.57;;;18.70;99.90;;;18.17;60.30;101384.81;5112942;28;20496;-59
2022/06/19 02:13:50;;;;;;;23.15;5.32;;;18.10;99.90;;;18.52;60.16;101321.34;5112829;28;20085;-59
2022/06/19 02:16:22;;;;;;;15.88;4.88;;;18.10;99.90;;;18.62;59.38;101214.72;5112997;28;20050;-59
2022/06/19 02:18:53;;;;;;;20.17;5.18;;;18.20;99.90;;;18.65;58.89;101073.47;5113367;28;20051;-59
2022/06/19 02:21:35;;;;;;;18.73;5.22;;;18.40;99.90;;;18.79;58.71;101047.06;5113488;28;20108;-59
2022/06/19 02:24:05;;;;;;;19.38;4.97;;;18.40;99.90;;;18.66;58.52;101018.94;5112334;28;20104;-59
2022/06/19 02:26:36;;;;;;;23.08;4.82;;;18.40;99.90;;;18.59;58.27;101028.13;5113542;28;20047;-59
2022/06/19 02:29:09;;;;;;;19.92;5.43;;;18.40;99.90;;;18.72;58.09;101015.16;5112688;28;20528;-59
2022/06/19 02:31:40;;;;;;;18.58;5.03;;;18.40;99.90;;;18.28;58.27;100933.66;5112627;28;20117;-59
2022/06/19 02:34:18;;;;;;;18.40;5.30;;;18.20;99.90;;;17.83;58.38;100948.59;5112583;28;20450;-59
2022/06/19 02:36:50;;;;;;;20.30;4.72;;;17.70;99.90;;;17.95;57.95;100910.72;5112540;28;20082;-59
2022/06/19 02:39:42;;;;;;;16.70;4.93;;;17.70;99.90;;;17.74;57.61;100873.97;5112906;28;20566;-59
2022/06/19 02:42:34;;;;;;;16.20;3.80;;;17.50;99.90;;;17.68;57.52;100797.47;5112729;28;20123;-60
2022/06/19 02:45:07;;;;;;;15.80;4.25;;;17.50;99.90;;;17.67;58.81;100781.47;5112597;28;20407;-59
2022/06/19 02:47:37;;;;;;;12.07;4.20;;;17.40;99.90;;;17.63;59.67;100771.81;5112595;28;20468;-59
2022/06/19 02:50:09;;;;;;;18.13;3.97;;;17.30;99.90;;;17.72;58.75;100774.16;5112224;28;20044;-59
2022/06/19 02:52:38;;;;;;;19.17;4.78;;;17.40;99.90;;;17.52;58.65;100757.91;5112187;28;20639;-59
2022/06/19 02:55:09;;;;;;;14.70;4.22;;;17.30;99.90;;;17.04;59.36;100788.00;5112165;28;20118;-59
2022/06/19 02:57:38;;;;;;;;;;;16.90;99.90;;;16.65;60.87;100788.38;5112899;28;20047;-59
2022/06/19 03:00:13;;;;;;;17.15;4.53;;;16.40;99.90;;;16.37;60.71;100792.75;5112278;28;19923;-59
2022/06/19 03:02:41;;;;;;;14.23;4.00;;;16.10;99.90;;;16.64;61.00;100832.03;5112155;28;20040;-59
2022/06/19 03:05:16;;;;;;;9.38;3.80;;;16.20;99.90;;;17.05;60.32;100877.09;5093904;28;20449;-59
2022/06/19 03:07:45;;;;;;;13.50;3.97;;;16.60;99.90;;;17.40;60.07;100913.41;5112247;28;20351;-59
2022/06/19 03:10:13;;;;;;;12.40;4.15;;;16.90;99.90;;;17.65;59.55;100920.63;5112172;28;20369;-59
2022/06/19 03:12:43;;;;;;;18.45;5.65;;;17.30;99.90;;;17.84;59.30;100937.84;5111912;28;20453;-59
2022/06/19 03:15:15;;;;;;;14.27;3.83;;;17.50;99.90;;;18.06;59.04;100946.00;5111970;28;20091;-59
2022/06/19 03:17:44;;;;;;;13.00;4.15;;;17.70;99.90;;;18.23;58.73;100958.84;5112280;28;20048;-59
2022/06/19 03:20:16;;;;;;;13.18;4.38;;;17.90;99.90;;;18.20;58.35;100951.78;5111659;28;20134;-59
2022/06/19 03:22:45;;;;;;;14.73;4.22;;;17.90;99.90;;;18.52;57.15;100981.06;5111838;28;20043;-59
2022/06/19 03:25:13;;;;;;;15.57;4.40;;;18.10;99.90;;;16.96;59.01;100942.38;5112066;28;20040;-59
2022/06/19 03:27:43;;;;;;;15.05;4.40;;;17.10;99.90;;;16.13;63.63;100938.44;5112030;28;20047;-59
2022/06/19 03:30:14;;;;;;;10.80;3.97;;;16.00;99.90;;;15.61;66.99;100871.31;5112014;28;20492;-59
2022/06/19 03:32:42;;;;;;;16.33;4.03;;;15.50;99.90;;;15.66;67.75;100834.78;5111943;28;20085;-59
2022/06/19 03:35:11;;;;;;;16.40;4.03;;;15.40;99.90;;;16.25;67.97;100874.06;5094625;28;20067;-59
2022/06/19 03:37:40;;;;;;;14.90;4.50;;;15.70;99.90;;;16.67;67.45;100840.81;5115930;28;20531;-59
2022/06/19 03:40:10;;;;;;;12.52;4.07;;;16.20;99.90;;;16.85;66.44;100821.59;5115409;28;20444;-58
2022/06/19 03:42:39;;;;;;;17.40;5.10;;;16.50;99.90;;;16.31;67.22;100776.91;5115654;28;20180;-59
2022/06/19 03:45:10;;;;;;;18.40;4.68;;;16.20;99.90;;;16.23;69.27;100697.06;5115180;28;20040;-59
2022/06/19 03:47:39;;;;;;;19.17;4.85;;;16.00;99.90;;;16.51;69.43;100588.50;5115502;28;20043;-59
2022/06/19 03:50:11;;;;;;;20.42;5.03;;;16.10;99.90;;;16.64;70.23;100493.72;5115279;28;20044;-59
2022/06/19 03:52:39;;;;;;;18.23;5.05;;;16.40;99.90;;;16.96;70.95;100551.34;5115840;28;20044;-59
2022/06/19 03:55:09;;;;;;;17.50;4.65;;;16.50;99.90;;;17.00;70.75;100595.72;5115132;28;20497;-59
2022/06/19 03:57:37;;;;;;;13.45;3.97;;;16.70;99.90;;;16.90;71.36;100736.78;5115422;28;20100;-59
2022/06/19 04:00:08;;;;;;;21.55;4.65;;;16.60;99.90;;;16.27;75.09;100818.84;5115282;28;20485;-59
2022/06/19 04:02:42;;;;;;;17.02;4.82;;;16.10;99.90;;;16.30;75.04;100850.78;5115409;28;20055;-59
2022/06/19 04:05:11;;;;;;;17.33;5.13;;;16.00;99.90;;;16.48;74.72;100885.00;5115036;28;20040;-59
2022/06/19 04:07:45;;;;;;;18.23;4.97;;;16.10;99.90;;;16.21;76.27;100888.41;5114924;28;20035;-59
2022/06/19 04:10:14;;;;;;;20.67;5.28;;;16.00;99.90;;;16.22;77.10;100916.84;5114760;28;20060;-59
2022/06/19 04:12:42;;;;;;;14.30;4.32;;;15.90;99.90;;;16.19;77.63;100907.16;5115005;28;20122;-59
2022/06/19 04:15:12;;;;;;;12.88;4.93;;;15.80;99.90;;;16.42;76.99;100897.63;5114879;28;20043;-59
2022/06/19 04:17:42;;;;;;;18.60;4.97;;;16.00;99.90;;;16.71;76.36;100921.75;5114671;28;20473;-59
2022/06/19 04:20:12;;;;;;;17.60;4.57;;;16.20;99.90;;;16.90;75.07;100949.69;5114882;28;20047;-59
2022/06/19 04:22:41;;;;;;;17.55;4.70;;;16.50;99.90;;;17.01;74.83;100969.81;5114953;28;20039;-59
2022/06/19 04:25:13;;;;;;;13.02;4.43;;;16.70;99.90;;;16.90;74.53;100969.25;5114825;28;20408;-59
2022/06/19 04:27:43;;;;;;;11.82;4.28;;;16.60;99.90;;;17.11;74.23;100975.81;5114802;28;20118;-59
2022/06/19 04:30:13;;;;;;;13.98;4.72;;;16.70;99.90;;;16.96;74.32;100993.16;5114388;28;20051;-59
2022/06/19 04:32:43;;;;;;;14.98;4.93;;;16.70;99.90;;;17.03;74.15;100975.16;5114965;28;20091;-59
2022/06/19 04:35:11;;;;;;;15.30;4.53;;;16.70;99.90;;;17.15;73.75;100997.03;5114986;28;20433;-59
2022/06/19 04:37:43;;;;;;;15.32;4.22;;;16.70;99.90;;;17.28;73.28;100999.34;5114741;28;20054;-59
2022/06/19 04:40:13;;;;;;;19.25;5.47;;;16.90;99.90;;;17.36;73.45;100982.19;5114601;28;20055;-59
2022/06/19 04:42:42;;;;;;;15.07;4.43;;;17.00;99.90;;;17.41;73.12;100929.41;5114904;28;20112;-59
2022/06/19 04:45:11;;;;;;;13.55;4.55;;;17.10;99.90;;;17.51;73.08;100944.28;5114298;28;20089;-59
2022/06/19 04:47:40;;;;;;;21.77;5.18;;;17.10;99.90;;;17.62;72.54;100949.28;5113719;28;20051;-59
2022/06/19 04:50:11;;;;;;;17.60;5.53;;;17.20;99.90;;;17.77;72.26;100971.06;5114352;28;20127;-59
2022/06/19 04:52:39;;;;;;;;;;;17.40;99.90;;;17.82;72.28;101003.94;5115303;28;20096;-59
2022/06/19 04:55:08;;;;;;;13.77;5.22;;;17.50;99.90;;;17.83;72.44;101002.97;5114796;28;20006;-59
2022/06/19 04:57:36;;;;;;;15.43;4.72;;;17.50;99.90;;;17.83;71.87;100992.28;5114488;28;20074;-59
2022/06/19 05:00:13;;;;;;;17.10;4.82;;;17.50;99.90;;;17.77;72.29;100949.66;5114395;28;20460;-59
2022/06/19 05:02:41;;;;;;;16.48;5.35;;;17.50;99.90;;;17.84;72.43;100936.97;5114242;28;20144;-59
2022/06/19 05:05:17;;;;;;;19.05;5.13;;;17.50;99.90;;;17.85;72.78;100965.47;5114097;28;20123;-59
2022/06/19 05:07:46;;;;;;;13.93;4.97;;;17.50;99.90;;;17.86;72.38;100999.34;5114476;28;20044;-59
2022/06/19 05:10:15;;;;;;;18.90;5.57;;;17.50;99.90;;;17.84;72.80;101023.50;5114095;28;20067;-59
2022/06/19 05:12:43;;;;;;;19.05;5.15;;;17.50;99.90;;;17.95;72.29;100993.69;5114016;28;20039;-59
2022/06/19 05:15:12;;;;;;;16.73;4.70;;;17.60;99.90;;;18.01;71.94;100964.03;5113991;28;20036;-59
2022/06/19 05:17:41;;;;;;;15.10;5.13;;;17.60;99.90;;;18.03;71.69;100916.69;5114313;28;20055;-59
2022/06/19 05:20:12;;;;;;;21.40;5.25;;;17.70;99.90;;;17.99;71.97;100889.16;5114438;28;20374;-59
2022/06/19 05:22:41;;;;;;;16.48;4.97;;;17.60;99.90;;;17.97;72.64;100891.00;5114533;28;20078;-59
2022/06/19 05:25:10;;;;;;;18.60;5.28;;;17.60;99.90;;;18.06;72.62;100916.56;5114124;28;20035;-60
2022/06/19 05:27:40;;;;;;;14.45;4.72;;;17.70;99.90;;;17.90;72.97;100934.94;5113720;28;20108;-59
2022/06/19 05:30:12;;;;;;;15.45;4.50;;;17.60;99.90;;;17.98;72.36;100950.78;5113871;28;20058;-59
2022/06/19 05:32:41;;;;;;;18.30;4.90;;;17.60;99.90;;;18.01;72.31;100989.03;5113554;28;20050;-59
2022/06/19 05:35:11;;;;;;;15.45;4.68;;;17.70;99.90;;;18.07;71.76;101006.69;5113468;28;20042;-59
2022/06/19 05:37:39;;;;;;;15.23;4.88;;;17.70;99.90;;;18.16;71.32;101018.88;5114061;28;20047;-59
2022/06/19 05:40:10;;;;;;;17.80;5.22;;;17.80;99.90;;;18.18;71.11;101020.56;5113394;28;20036;-59
2022/06/19 05:42:39;;;;;;;16.20;5.20;;;17.80;99.90;;;18.20;71.32;101032.13;5113589;28;20048;-59
2022/06/19 05:45:09;;;;;;;17.55;4.85;;;17.80;99.90;;;18.12;71.93;101050.22;5113260;28;20108;-59
2022/06/19 05:47:37;;;;;;;18.35;4.57;;;17.80;99.90;;;18.16;71.56;101075.09;5113745;28;20143;-59
2022/06/19 05:50:07;;;;;;;22.05;5.72;;;17.80;99.90;;;18.15;71.83;101102.81;5113676;28;20134;-59
2022/06/19 05:52:37;;;;;;;21.30;5.63;;;17.80;99.90;;;18.12;72.25;101119.84;5113573;28;20040;-59
2022/06/19 05:55:06;;;;;;;20.40;5.72;;;17.80;99.90;;;18.24;72.41;101142.69;5094898;28;20469;-59
2022/06/19 05:57:35;;;;;;;15.40;4.33;;;17.80;99.90;;;18.19;72.12;101164.28;5113003;28;20071;-59
2022/06/19 06:00:05;;;;;;;15.90;5.15;;;17.80;99.90;;;18.23;71.79;101170.41;5112875;28;20406;-59
2022/06/19 06:02:38;;;;;;;21.05;5.57;;;17.80;99.90;;;18.32;71.50;101167.44;5112789;28;20504;-59
2022/06/19 06:05:10;;;;;;;15.43;5.05;;;17.90;99.90;;;18.36;71.53;101164.63;5112949;28;20052;-59
2022/06/19 06:07:40;;;;;;;17.80;5.35;;;17.90;99.90;;;18.43;71.59;101163.50;5112766;28;20093;-59
2022/06/19 06:10:11;;;;;;;16.20;5.43;;;18.10;99.90;;;18.21;71.07;101142.78;5113102;28;20163;-60
2022/06/19 06:12:39;;;;;;;18.05;5.25;;;18.00;99.90;;;18.46;70.53;101203.63;5112602;28;20455;-59
2022/06/19 06:15:09;;;;;;;16.63;5.00;;;18.10;99.90;;;18.53;70.80;101213.22;5112611;28;20504;-59
2022/06/19 06:17:38;;;;;;;19.33;5.72;;;18.10;99.90;;;18.56;70.55;101217.59;5112350;28;20108;-59
2022/06/19 06:20:07;;;;;;;19.42;5.22;;;18.10;99.90;;;18.59;70.46;101223.75;5112746;28;20134;-59
2022/06/19 06:22:36;;;;;;;17.52;5.10;;;18.20;99.90;;;18.55;70.65;101215.84;5112372;28;20051;-59
2022/06/19 06:25:07;;;;;;;23.27;6.30;;;18.10;99.90;;;18.35;70.74;101175.38;5112355;28;20380;-60
2022/06/19 06:27:35;;;;;;;21.55;6.45;;;18.20;99.90;;;18.67;70.94;101212.78;5112393;28;20052;-59
2022/06/19 06:30:05;;;;;;;16.35;5.75;;;18.20;99.90;;;18.67;71.15;101207.41;5112351;28;20412;-59
2022/06/19 06:32:33;;;;;;;20.75;5.68;;;18.20;99.90;;;18.78;70.57;101211.50;5112299;28;20039;-61
2022/06/19 06:35:01;;;;;;;23.38;6.93;;;18.40;99.90;;;18.78;70.45;101214.19;5112516;28;20219;-59
2022/06/19 06:37:30;;;;;;;22.83;6.55;;;18.40;99.90;;;18.77;70.55;101206.19;5113009;28;20088;-59
2022/06/19 06:39:58;;;;;;;28.85;6.95;;;18.40;99.90;;;18.68;70.88;101203.78;5112389;28;20036;-59
2022/06/19 06:42:28;;;;;;;26.45;6.88;;;18.30;99.90;;;18.61;71.23;101204.94;5112130;28;20464;-59
2022/06/19 06:44:56;;;;;;;21.63;6.60;;;18.30;99.90;;;18.69;71.71;101203.78;5112197;28;20042;-59
2022/06/19 06:47:24;;;;;;;25.88;6.50;;;18.30;99.90;;;17.55;71.77;101006.59;5112434;28;20580;-59
2022/06/19 06:49:52;;;;;;;22.63;6.55;;;18.30;99.90;;;18.63;72.39;101213.78;5112114;28;20044;-59
2022/06/19 06:52:21;;;;;;;22.70;6.00;;;18.20;99.90;;;18.65;72.43;101228.91;5112319;28;20375;-59
2022/06/19 06:54:49;;;;;;;22.45;6.35;;;18.30;99.90;;;18.63;72.77;101229.88;5112265;28;20085;-59
2022/06/19 06:57:18;;;;;;;25.08;6.75;;;18.20;99.90;;;18.59;72.88;101239.81;5111881;28;20058;-59
2022/06/19 06:59:48;;;;;;;21.70;6.47;;;18.20;99.90;;;18.49;73.29;101254.41;5112026;28;20108;-59
2022/06/19 07:02:16;;;;;;;24.45;6.38;;;18.10;99.90;;;18.52;73.58;101259.69;5112053;28;20074;-59
2022/06/19 07:04:44;;;;;;;19.98;6.43;;;18.10;99.90;;;18.49;73.72;101253.53;5111844;28;20048;-59
2022/06/19 07:07:13;;;;;;;24.40;6.25;;;18.10;99.90;;;18.55;73.85;101248.88;5111933;28;20122;-59
2022/06/19 07:09:41;;;;;;;19.92;6.43;;;18.10;99.90;;;18.53;73.87;101256.09;5112039;28;20100;-59
2022/06/19 07:12:11;;;;;;;20.42;6.57;;;18.10;99.90;;;18.58;73.88;101253.28;5116453;28;20036;-59
2022/06/19 07:14:39;;;;;;;25.35;6.63;;;18.10;99.90;;;18.55;73.88;101253.34;5115921;28;20067;-59
2022/06/19 07:17:10;;;;;;;21.95;6.63;;;18.20;99.90;;;18.57;73.96;101262.22;5097521;28;20537;-59
2022/06/19 07:19:38;;;;;;;19.92;6.78;;;18.20;99.90;;;18.57;74.07;101263.09;5115907;28;20039;-59
2022/06/19 07:22:06;;;;;;;19.55;7.43;;;18.20;99.90;;;18.60;73.94;101262.13;5115663;28;20040;-59
2022/06/19 07:24:35;;;;;;;20.40;6.72;;;18.10;99.90;;;18.55;74.43;101262.28;5115946;28;20097;-59
2022/06/19 07:27:03;;;;;;;25.08;7.85;;;18.10;99.90;;;18.56;74.62;101258.66;5115587;28;20146;-59
2022/06/19 07:29:32;;;;;;;22.77;8.10;;;18.10;99.90;;;18.51;74.70;101236.50;5115799;28;20590;-59
2022/06/19 07:32:00;;;;;;;27.67;7.68;;;18.10;99.90;;;18.56;74.34;101239.91;5115487;28;20061;-59
2022/06/19 07:34:30;;;;;;;21.75;7.10;;;18.10;99.90;;;18.57;74.52;101239.00;5115375;28;20092;-59
2022/06/19 07:37:00;;;;;;;21.25;7.93;;;18.10;99.90;;;18.58;74.60;101226.47;5115318;28;20075;-59
2022/06/19 07:39:29;;;;;;;28.10;8.63;;;18.20;99.90;;;18.64;74.42;101215.56;5115159;28;20043;-59
2022/06/19 07:41:57;;;;;;;25.25;8.00;;;18.20;99.90;;;18.64;74.07;101189.63;5115499;28;20160;-59
2022/06/19 07:44:26;;;;;;;26.27;8.93;;;18.20;99.90;;;18.70;74.37;101173.34;5097470;28;20047;-59
2022/06/19 07:52:27;;;;;;;21.17;8.52;;;18.30;99.90;;;18.75;75.00;101124.97;5115373;28;20047;-59
2022/06/19 07:54:56;;;;;;;22.67;8.57;;;18.40;99.90;;;18.76;74.94;101118.66;5115338;28;20036;-59
2022/06/19 07:57:26;;;;;;;21.95;8.68;;;18.30;99.90;;;18.71;74.97;101113.47;5115291;28;20043;-59
2022/06/19 07:59:54;;;;;;;24.45;8.25;;;18.30;99.90;;;18.82;74.75;101113.97;5097197;28;20044;-59
2022/06/19 08:02:24;;;;;;;24.08;9.35;;;18.40;99.90;;;18.77;75.06;101123.09;5115148;28;20040;-60
2022/06/19 08:04:54;;;;;;;24.13;9.38;;;18.40;99.90;;;18.74;75.36;101148.19;5115729;28;20051;-59
2022/06/19 08:07:22;;;;;;;24.38;9.45;;;18.40;99.90;;;18.91;75.49;101163.72;5115720;28;20120;-59
2022/06/19 08:09:51;;;;;;;23.35;10.13;;;18.50;99.90;;;18.97;74.61;101152.78;5115596;28;20057;-60
2022/06/19 08:12:20;;;;;;;22.33;8.55;;;18.50;99.90;;;18.95;74.22;101156.47;5115029;28;20457;-59
2022/06/19 08:14:49;;;;;;;20.27;8.30;;;18.50;99.90;;;18.87;74.51;101154.88;5115394;28;20050;-59
2022/06/19 08:17:17;;;;;;;21.40;9.40;;;18.50;99.90;;;18.89;74.57;101169.13;5114738;28;20156;-59
2022/06/19 08:19:46;;;;;;;21.10;9.48;;;18.50;99.90;;;18.86;74.74;101176.41;5115592;28;20070;-59
2022/06/19 08:22:16;;;;;;;19.05;8.80;;;18.50;99.90;;;18.84;74.28;101170.22;5114018;28;20072;-59
2022/06/19 08:24:44;;;;;;;19.67;8.50;;;18.40;99.90;;;18.91;74.30;101164.59;5115852;28;20145;-59
2022/06/19 08:27:12;;;;;;;22.80;9.43;;;18.50;99.90;;;18.92;74.25;101163.69;5115581;28;20046;-59
2022/06/19 08:29:41;;;;;;;19.85;9.18;;;18.60;99.90;;;18.48;73.93;101083.91;5114941;28;20044;-59
2022/06/19 08:32:09;;;;;;;24.83;10.00;;;18.50;99.90;;;18.94;74.33;101144.84;5115590;28;20048;-59
2022/06/19 08:34:37;;;;;;;22.10;9.63;;;18.50;99.90;;;18.98;73.85;101150.97;5114698;28;20035;-59
2022/06/19 08:37:09;;;;;;;20.75;9.75;;;18.60;99.90;;;18.91;73.27;101150.34;5114964;28;20044;-59
2022/06/19 08:39:40;;;;;;;27.70;9.68;;;18.60;99.90;;;18.88;73.30;101148.63;5114608;28;20042;-59
2022/06/19 08:42:28;;;;;;;;;;;18.50;99.90;;;18.89;72.97;101146.81;5115098;28;20048;-59
2022/06/19 08:45:34;;;;;;;23.52;8.80;;;18.50;99.90;;;18.87;72.75;101146.00;5096624;28;19920;-59
2022/06/19 08:48:49;;;;;;;16.98;7.72;;;18.50;99.90;;;18.92;72.35;101155.63;5114542;28;20058;-59
2022/06/19 08:51:30;;;;;;;25.85;8.10;;;18.50;99.90;;;18.76;72.04;101142.78;5114434;28;20042;-59
2022/06/19 08:54:29;;;;;;;20.33;7.25;;;18.50;99.90;;;18.86;72.26;101142.44;5114286;28;20458;-59
2022/06/19 08:57:08;;;;;;;16.65;7.28;;;18.50;99.90;;;19.01;72.16;101150.88;5095920;28;20130;-59
2022/06/19 08:59:50;;;;;;;20.02;6.82;;;18.60;99.90;;;19.00;72.15;101166.09;5114050;28;20485;-59
2022/06/19 09:02:35;;;;;;;21.77;6.78;;;18.60;99.90;;;18.99;71.34;101164.31;5113937;28;20130;-59
2022/06/19 09:08:31;;;;;;;16.67;6.50;;;18.60;99.90;;;19.03;72.08;101122.22;5113776;28;20067;-59
2022/06/19 09:11:08;;;;;;;17.30;6.40;;;18.60;99.90;;;19.02;71.87;101107.94;5114058;28;20043;-59
2022/06/19 09:13:57;;;;;;;17.80;7.70;;;18.60;99.90;;;19.06;71.99;101100.66;5114008;28;20466;-59
2022/06/19 09:16:35;;;;;;;14.05;6.78;;;18.70;99.90;;;19.12;71.65;101095.94;5113926;28;20561;-59
2022/06/19 09:19:14;;;;;;;18.25;7.35;;;18.70;99.90;;;19.18;71.30;101079.59;5113467;28;20458;-59
2022/06/19 09:22:03;;;;;;;18.35;6.20;;;18.80;99.90;;;19.11;71.31;101059.31;5113733;28;20100;-59
2022/06/19 09:24:51;;;;;;;25.05;6.47;;;18.70;99.90;;;19.20;71.27;101074.22;5113395;28;20063;-59
2022/06/19 09:27:26;;;;;;;14.20;5.32;;;18.80;99.90;;;19.30;71.14;101089.91;5113414;28;20489;-59
2022/06/19 09:30:03;;;;;;;16.92;5.50;;;19.00;99.90;;;19.28;70.42;101117.72;5113504;28;20096;-59
2022/06/19 09:32:36;;;;;;;17.83;5.60;;;18.90;99.90;;;19.04;71.16;101099.81;5113050;28;20054;-60
2022/06/19 09:35:32;;;;;;;17.02;4.80;;;18.80;99.90;;;19.24;70.31;101108.03;5094970;28;20137;-60
2022/06/19 09:38:06;;;;;;;14.70;4.82;;;18.90;99.90;;;19.16;70.36;101094.91;5113443;28;20502;-60
2022/06/19 09:40:38;;;;;;;20.83;5.00;;;18.80;99.90;;;19.09;69.72;101096.03;5112928;28;20075;-60
2022/06/19 09:43:13;;;;;;;10.30;4.07;;;18.80;99.90;;;19.05;69.66;101101.59;5112953;28;20052;-59
2022/06/19 09:45:52;;;;;;;10.60;4.20;;;18.70;99.90;;;19.05;69.42;101090.88;5094584;28;20047;-59
2022/06/19 09:48:26;;;;;;;12.73;4.15;;;18.60;99.90;;;19.05;68.89;101094.41;5113274;28;20032;-59
2022/06/19 09:51:04;;;;;;;9.70;3.70;;;18.70;99.90;;;19.00;68.54;101103.53;5112829;28;20147;-59
2022/06/19 09:53:39;;;;;;;10.40;4.18;;;18.60;99.90;;;18.97;68.90;101111.69;5113558;28;20078;-59
2022/06/19 09:56:36;;;;;;;11.35;3.85;;;18.60;99.90;;;18.72;69.07;101075.00;5113116;28;20047;-59
2022/06/19 09:59:15;;;;;;;14.20;3.72;;;18.60;99.90;;;18.93;68.52;101130.56;5112717;28;20071;-59
2022/06/19 10:01:54;;;;;;;12.77;4.75;;;18.60;99.90;;;18.93;67.82;101132.34;5112970;28;20120;-59
2022/06/19 10:04:33;;;;;;;11.27;5.47;;;18.60;99.90;;;18.93;67.50;101140.41;5112651;28;20042;-59
2022/06/19 10:07:09;;;;;;;11.02;4.53;;;18.60;99.90;;;18.96;68.07;101151.03;5112668;28;20036;-59
2022/06/19 10:09:50;;;;;;;8.45;3.60;;;18.60;99.90;;;19.03;67.43;101144.53;5112831;28;20100;-59
2022/06/19 10:12:29;;;;;;;10.35;4.82;;;18.70;99.90;;;19.03;67.33;101136.47;5094920;28;20428;-59
2022/06/19 10:15:04;;;;;;;12.68;5.00;;;18.70;99.90;;;19.09;67.47;101128.22;5112943;28;20071;-59
2022/06/19 10:17:46;;;;;;;12.52;5.25;;;18.80;99.90;;;19.11;67.42;101152.28;5112641;28;20124;-60
2022/06/19 10:20:18;;;;;;;9.93;4.68;;;18.80;99.90;;;19.09;67.37;101148.78;5112640;28;20051;-59
2022/06/19 10:22:59;;;;;;;11.10;5.03;;;18.80;99.90;;;19.24;67.21;101170.59;5112564;28;20047;-61
2022/06/19 10:25:36;;;;;;;;;;;18.90;99.90;;;19.29;67.56;101171.31;5112775;28;20433;-59
2022/06/19 10:28:23;;;;;;;9.10;4.50;;;19.00;99.90;;;19.34;66.71;101172.06;5112614;28;19996;-59
2022/06/19 10:31:08;;;;;;;8.55;4.63;;;19.00;99.90;;;19.50;66.39;101183.13;5112186;28;20043;-59
2022/06/19 10:33:54;;;;;;;8.27;4.10;;;19.10;99.90;;;19.59;66.34;101174.72;5112537;28;20479;-59
2022/06/19 10:36:32;;;;;;;10.77;4.15;;;19.20;99.90;;;19.63;65.71;101166.50;5112715;28;20147;-59
2022/06/19 10:39:33;;;;;;;9.32;4.15;;;19.30;99.90;;;19.82;64.82;101157.78;5112607;28;20044;-59
2022/06/19 10:42:09;;;;;;;10.48;3.97;;;19.40;99.90;;;19.88;64.44;101145.00;5112272;28;20485;-59